createdAt,value
2022-08-26T00:01:24.219Z,21.28
2022-08-26T00:03:56.450Z,21.25
2022-08-26T00:06:23.622Z,21.23
2022-08-26T00:08:50.394Z,21.04
2022-08-26T00:11:26.610Z,20.99
2022-08-26T00:13:54.944Z,20.98
2022-08-26T00:16:23.615Z,20.93
2022-08-26T00:18:50.804Z,20.91
2022-08-26T00:21:17.474Z,20.88
2022-08-26T00:23:44.942Z,20.83
2022-08-26T00:26:13.239Z,20.83
2022-08-26T00:28:40.931Z,20.75
2022-08-26T00:31:07.954Z,20.72
2022-08-26T00:33:38.485Z,20.71
2022-08-26T00:36:05.988Z,20.61
2022-08-26T00:38:33.019Z,20.55
2022-08-26T00:40:59.678Z,20.51
2022-08-26T00:43:27.521Z,20.56
2022-08-26T00:46:00.360Z,20.64
2022-08-26T00:48:32.501Z,20.63
2022-08-26T00:51:11.654Z,20.64
2022-08-26T00:53:47.977Z,20.65
2022-08-26T00:56:29.878Z,20.60
2022-08-26T00:59:01.147Z,20.62
2022-08-26T01:01:28.435Z,20.64
2022-08-26T01:03:57.928Z,20.56
2022-08-26T01:06:25.142Z,20.56
2022-08-26T01:08:53.269Z,20.53
2022-08-26T01:11:20.910Z,20.48
2022-08-26T01:13:48.866Z,20.43
2022-08-26T01:16:17.102Z,20.43
2022-08-26T01:18:45.005Z,20.40
2022-08-26T01:21:25.187Z,20.44
2022-08-26T01:23:57.712Z,20.44
2022-08-26T01:26:32.419Z,20.44
2022-08-26T01:29:02.980Z,20.40
2022-08-26T01:31:39.353Z,20.39
2022-08-26T01:34:27.648Z,20.33
2022-08-26T01:37:15.973Z,20.38
2022-08-26T01:39:44.906Z,20.41
2022-08-26T01:42:14.656Z,20.36
2022-08-26T01:44:57.659Z,20.39
2022-08-26T01:47:27.949Z,20.32
2022-08-26T01:50:00.699Z,20.32
2022-08-26T01:52:30.454Z,20.32
2022-08-26T01:55:00.019Z,20.34
2022-08-26T01:57:27.412Z,20.34
2022-08-26T01:59:58.928Z,20.17
2022-08-26T02:02:29.430Z,20.20
2022-08-26T02:05:04.368Z,20.20
2022-08-26T02:07:33.290Z,20.22
2022-08-26T02:10:00.847Z,20.20
2022-08-26T02:12:27.694Z,20.20
2022-08-26T02:14:59.518Z,20.14
2022-08-26T02:17:37.595Z,20.11
2022-08-26T02:20:06.109Z,20.10
2022-08-26T02:22:41.325Z,20.12
2022-08-26T02:25:32.347Z,20.12
2022-08-26T02:27:59.087Z,20.09
2022-08-26T02:30:32.090Z,20.05
2022-08-26T02:33:03.234Z,19.97
2022-08-26T02:35:32.298Z,19.98
2022-08-26T02:38:00.417Z,19.98
2022-08-26T02:40:31.175Z,20.06
2022-08-26T02:42:58.027Z,19.90
2022-08-26T02:45:26.308Z,19.98
2022-08-26T02:47:53.837Z,19.92
2022-08-26T02:50:20.797Z,19.88
2022-08-26T02:52:48.674Z,19.86
2022-08-26T02:55:15.679Z,19.94
2022-08-26T02:57:42.366Z,19.97
2022-08-26T03:00:11.096Z,19.98
2022-08-26T03:02:37.769Z,20.03
2022-08-26T03:05:04.877Z,19.87
2022-08-26T03:07:31.542Z,19.93
2022-08-26T03:09:59.511Z,19.87
2022-08-26T03:12:26.602Z,19.85
2022-08-26T03:14:53.447Z,19.90
2022-08-26T03:17:21.193Z,19.88
2022-08-26T03:19:50.702Z,19.86
2022-08-26T03:22:19.601Z,19.81
2022-08-26T03:24:47.280Z,19.74
2022-08-26T03:27:14.459Z,19.66
2022-08-26T03:30:00.406Z,19.71
2022-08-26T03:32:28.056Z,19.69
2022-08-26T03:34:56.539Z,19.66
2022-08-26T03:37:23.499Z,19.61
2022-08-26T03:39:50.313Z,19.71
2022-08-26T03:42:17.129Z,19.62
2022-08-26T03:44:48.520Z,19.64
2022-08-26T03:47:15.804Z,19.66
2022-08-26T03:49:42.502Z,19.63
2022-08-26T03:52:10.498Z,19.61
2022-08-26T03:54:37.263Z,19.64
2022-08-26T03:57:04.303Z,19.66
2022-08-26T03:59:31.861Z,19.70
2022-08-26T04:01:58.624Z,19.72
2022-08-26T04:04:25.785Z,19.68
2022-08-26T04:06:58.467Z,19.65
2022-08-26T04:09:26.369Z,19.56
2022-08-26T04:11:53.937Z,19.54
2022-08-26T04:14:23.795Z,19.55
2022-08-26T04:16:52.118Z,19.56
2022-08-26T04:19:20.667Z,19.60
2022-08-26T04:21:48.906Z,19.69
2022-08-26T04:24:16.655Z,19.71
2022-08-26T04:26:44.545Z,19.62
2022-08-26T04:29:18.259Z,19.73
2022-08-26T04:31:46.937Z,19.82
2022-08-26T04:34:15.563Z,19.84
2022-08-26T04:36:43.193Z,19.86
2022-08-26T04:39:19.774Z,19.89
2022-08-26T04:41:48.497Z,19.84
2022-08-26T04:44:16.466Z,19.85
2022-08-26T04:46:46.965Z,19.81
2022-08-26T04:49:13.819Z,19.88
2022-08-26T04:51:40.785Z,19.97
2022-08-26T04:54:08.101Z,20.01
2022-08-26T04:56:38.190Z,20.12
2022-08-26T04:59:08.056Z,20.21
2022-08-26T05:01:45.552Z,20.26
2022-08-26T05:04:13.304Z,20.30
2022-08-26T05:06:43.143Z,20.30
2022-08-26T05:09:10.031Z,20.28
2022-08-26T05:11:38.420Z,20.38
2022-08-26T05:14:06.083Z,20.38
2022-08-26T05:16:32.837Z,20.39
2022-08-26T05:18:59.436Z,20.40
2022-08-26T05:21:29.139Z,20.41
2022-08-26T05:23:56.921Z,20.56
2022-08-26T05:26:26.463Z,20.73
2022-08-26T05:28:54.853Z,20.81
2022-08-26T05:31:28.055Z,20.91
2022-08-26T05:33:57.638Z,20.95
2022-08-26T05:36:27.385Z,21.04
2022-08-26T05:38:55.783Z,21.05
2022-08-26T05:41:34.004Z,21.07
2022-08-26T05:44:02.323Z,21.14
2022-08-26T05:46:29.827Z,21.26
2022-08-26T05:48:57.348Z,21.29
2022-08-26T05:51:26.292Z,21.39
2022-08-26T05:53:54.828Z,21.54
2022-08-26T05:56:27.660Z,21.57
2022-08-26T05:58:58.550Z,21.70
2022-08-26T06:01:27.648Z,21.89
2022-08-26T06:04:01.763Z,22.06
2022-08-26T06:06:34.418Z,22.65
2022-08-26T06:09:04.517Z,23.77
2022-08-26T06:11:32.630Z,24.74
2022-08-26T06:14:03.860Z,25.16
2022-08-26T06:16:32.320Z,25.93
2022-08-26T06:18:59.068Z,26.27
2022-08-26T06:21:32.915Z,26.50
2022-08-26T06:24:27.343Z,26.62
2022-08-26T06:27:02.355Z,27.32
2022-08-26T06:29:31.589Z,27.23
2022-08-26T06:31:58.603Z,26.92
2022-08-26T06:34:30.418Z,27.13
2022-08-26T06:37:02.440Z,27.28
2022-08-26T06:39:30.788Z,27.36
2022-08-26T06:41:59.079Z,27.54
2022-08-26T06:44:27.713Z,27.94
2022-08-26T06:46:54.816Z,27.90
2022-08-26T06:49:26.919Z,27.74
2022-08-26T06:51:58.377Z,28.22
2022-08-26T06:54:25.724Z,29.27
2022-08-26T06:56:52.395Z,29.17
2022-08-26T06:59:18.984Z,28.71
2022-08-26T07:01:46.544Z,29.01
2022-08-26T07:04:15.732Z,28.77
2022-08-26T07:06:48.954Z,28.16
2022-08-26T07:09:16.932Z,28.17
2022-08-26T07:11:44.690Z,28.10
2022-08-26T07:14:12.644Z,28.06
2022-08-26T07:16:41.186Z,27.99
2022-08-26T07:19:10.563Z,28.76
2022-08-26T07:21:40.445Z,28.45
2022-08-26T07:24:08.440Z,28.40
2022-08-26T07:26:38.246Z,28.89
2022-08-26T07:29:05.466Z,28.77
2022-08-26T07:31:39.589Z,28.54
2022-08-26T07:34:09.384Z,28.00
2022-08-26T07:36:36.444Z,27.75
2022-08-26T07:39:03.530Z,28.05
2022-08-26T07:44:01.693Z,27.93
2022-08-26T07:46:30.443Z,27.69
2022-08-26T07:48:58.353Z,28.13
2022-08-26T07:51:26.424Z,28.46
2022-08-26T07:53:54.309Z,28.24
2022-08-26T07:56:23.222Z,27.83
2022-08-26T07:58:51.835Z,28.36
2022-08-26T08:01:24.041Z,28.43
2022-08-26T08:03:53.345Z,28.62
2022-08-26T08:06:21.405Z,28.12
2022-08-26T08:08:50.728Z,27.68
2022-08-26T08:11:21.171Z,27.57
2022-08-26T08:13:50.008Z,27.51
2022-08-26T08:16:24.498Z,27.08
2022-08-26T08:18:51.235Z,27.09
2022-08-26T08:21:21.185Z,27.09
2022-08-26T08:23:55.553Z,27.13
2022-08-26T08:26:23.967Z,27.42
2022-08-26T08:28:53.667Z,27.61
2022-08-26T08:34:13.975Z,28.03
2022-08-26T08:36:40.660Z,28.25
2022-08-26T08:39:08.215Z,28.71
2022-08-26T08:41:38.587Z,29.03
2022-08-26T08:44:13.932Z,29.38
2022-08-26T08:46:42.527Z,29.66
2022-08-26T08:49:11.156Z,29.64
2022-08-26T08:52:00.592Z,30.04
2022-08-26T08:54:28.212Z,30.11
2022-08-26T08:57:04.635Z,29.96
2022-08-26T08:59:34.396Z,30.13
2022-08-26T09:03:01.097Z,30.31
2022-08-26T09:05:40.175Z,30.50
2022-08-26T09:08:20.026Z,30.72
2022-08-26T09:10:54.635Z,30.84
2022-08-26T09:13:26.192Z,30.87
2022-08-26T09:16:02.888Z,30.78
2022-08-26T09:18:54.546Z,30.67
2022-08-26T09:21:23.912Z,30.64
2022-08-26T09:23:55.454Z,30.91
2022-08-26T09:26:45.478Z,31.07
2022-08-26T09:29:40.809Z,31.13
2022-08-26T09:32:22.114Z,31.10
2022-08-26T09:34:57.656Z,31.18
2022-08-26T09:37:56.666Z,31.05
2022-08-26T09:40:36.455Z,30.71
2022-08-26T09:43:22.623Z,30.62
2022-08-26T09:45:59.609Z,30.76
2022-08-26T09:48:35.521Z,30.46
2022-08-26T09:51:06.989Z,30.16
2022-08-26T09:53:50.040Z,30.66
2022-08-26T09:56:28.178Z,31.06
2022-08-26T09:58:56.487Z,31.22
2022-08-26T10:01:23.137Z,31.43
2022-08-26T10:03:51.464Z,31.57
2022-08-26T10:06:18.138Z,31.71
2022-08-26T10:08:52.020Z,31.02
2022-08-26T10:11:21.220Z,31.09
2022-08-26T10:13:56.523Z,31.34
2022-08-26T10:16:29.909Z,31.58
2022-08-26T10:19:07.677Z,31.83
2022-08-26T10:21:54.066Z,31.95
2022-08-26T10:24:28.075Z,31.96
2022-08-26T10:27:22.115Z,32.03
2022-08-26T10:29:51.823Z,31.98
2022-08-26T10:32:45.330Z,31.92
2022-08-26T10:35:15.129Z,32.19
2022-08-26T10:37:54.767Z,32.28
2022-08-26T10:41:02.544Z,32.42
2022-08-26T10:43:43.042Z,32.11
2022-08-26T10:46:16.393Z,32.34
2022-08-26T10:48:56.444Z,32.41
2022-08-26T10:51:35.490Z,32.56
2022-08-26T10:54:12.703Z,32.61
2022-08-26T10:56:59.522Z,32.42
2022-08-26T10:59:35.170Z,32.41
2022-08-26T11:02:13.362Z,32.52
2022-08-26T11:04:50.780Z,32.38
2022-08-26T11:07:41.805Z,32.62
2022-08-26T11:10:13.208Z,32.72
2022-08-26T11:12:39.778Z,32.66
2022-08-26T11:15:12.174Z,32.81
2022-08-26T11:17:46.049Z,32.80
2022-08-26T11:20:28.546Z,32.92
2022-08-26T11:22:56.354Z,32.93
2022-08-26T11:25:30.177Z,32.90
2022-08-26T11:28:00.890Z,32.98
2022-08-26T11:30:40.792Z,32.89
2022-08-26T11:33:08.491Z,32.90
2022-08-26T11:35:37.485Z,33.27
2022-08-26T11:38:41.612Z,33.11
2022-08-26T11:41:11.989Z,32.83
2022-08-26T11:43:40.581Z,32.90
2022-08-26T11:46:10.787Z,33.29
2022-08-26T11:48:43.105Z,33.18
2022-08-26T11:51:20.385Z,33.36
2022-08-26T11:53:47.418Z,32.90
2022-08-26T11:56:31.744Z,32.78
2022-08-26T11:59:02.109Z,32.75
2022-08-26T12:01:35.856Z,32.38
2022-08-26T12:04:08.404Z,31.67
2022-08-26T12:06:45.354Z,31.39
2022-08-26T12:09:22.868Z,30.87
2022-08-26T12:11:49.922Z,30.37
2022-08-26T12:14:25.140Z,30.10
2022-08-26T12:16:54.244Z,29.80
2022-08-26T12:19:26.186Z,29.55
2022-08-26T12:21:59.273Z,29.49
2022-08-26T12:24:26.384Z,29.21
2022-08-26T12:27:11.058Z,29.14
2022-08-26T12:29:39.625Z,29.09
2022-08-26T12:32:13.554Z,28.94
2022-08-26T12:34:45.843Z,28.92
2022-08-26T12:37:14.120Z,28.83
2022-08-26T12:39:44.666Z,28.63
2022-08-26T12:42:16.886Z,28.55
2022-08-26T12:45:09.810Z,28.28
2022-08-26T12:47:43.084Z,28.27
2022-08-26T12:50:25.637Z,28.22
2022-08-26T12:52:58.358Z,28.12
2022-08-26T12:55:33.299Z,27.98
2022-08-26T12:58:16.395Z,27.87
2022-08-26T13:00:48.284Z,27.71
2022-08-26T13:03:34.784Z,27.76
2022-08-26T13:06:20.013Z,27.71
2022-08-26T13:08:52.913Z,27.59
2022-08-26T13:11:22.242Z,27.37
2022-08-26T13:13:51.941Z,27.44
2022-08-26T13:16:21.766Z,27.22
2022-08-26T13:18:51.618Z,27.25
2022-08-26T13:21:21.280Z,27.09
2022-08-26T13:23:48.529Z,27.13
2022-08-26T13:26:15.800Z,27.25
2022-08-26T13:28:42.590Z,27.44
2022-08-26T13:31:12.782Z,27.60
2022-08-26T13:33:40.927Z,27.63
2022-08-26T13:36:08.248Z,27.69
2022-08-26T13:38:35.074Z,27.60
2022-08-26T13:41:03.603Z,27.73
2022-08-26T13:43:31.211Z,27.76
2022-08-26T13:45:58.066Z,27.78
2022-08-26T13:48:25.159Z,27.85
2022-08-26T13:50:53.746Z,27.86
2022-08-26T13:53:20.823Z,27.79
2022-08-26T13:55:47.947Z,27.79
2022-08-26T13:58:14.878Z,27.82
2022-08-26T14:00:42.487Z,27.85
2022-08-26T14:03:13.267Z,27.74
2022-08-26T14:05:40.682Z,27.75
2022-08-26T14:08:08.039Z,27.86
2022-08-26T14:10:35.203Z,27.92
2022-08-26T14:13:01.875Z,27.94
2022-08-26T14:15:29.462Z,27.95
2022-08-26T14:17:56.141Z,28.01
2022-08-26T14:20:26.123Z,28.05
2022-08-26T14:25:40.368Z,28.10
2022-08-26T14:28:07.072Z,27.98
2022-08-26T14:30:34.521Z,28.07
2022-08-26T14:33:01.213Z,28.07
2022-08-26T14:35:30.237Z,28.24
2022-08-26T14:37:57.425Z,28.27
2022-08-26T14:40:29.536Z,28.18
2022-08-26T14:42:58.914Z,27.95
2022-08-26T14:45:30.202Z,27.56
2022-08-26T14:47:57.113Z,27.28
2022-08-26T14:50:30.610Z,27.00
2022-08-26T14:53:16.258Z,26.67
2022-08-26T14:55:43.306Z,26.54
2022-08-26T14:58:10.192Z,26.50
2022-08-26T15:00:37.831Z,26.45
2022-08-26T15:03:05.735Z,26.57
2022-08-26T15:05:33.607Z,26.62
2022-08-26T15:08:00.578Z,26.61
2022-08-26T15:10:27.180Z,26.38
2022-08-26T15:12:53.869Z,26.37
2022-08-26T15:15:20.960Z,26.24
2022-08-26T15:17:47.739Z,26.33
2022-08-26T15:20:16.613Z,26.24
2022-08-26T15:22:43.296Z,26.23
2022-08-26T15:25:10.729Z,26.23
2022-08-26T15:27:37.741Z,26.16
2022-08-26T15:30:10.947Z,26.32
2022-08-26T15:32:37.791Z,26.44
2022-08-26T15:35:09.081Z,26.44
2022-08-26T15:37:36.713Z,26.51
2022-08-26T15:40:04.839Z,26.58
2022-08-26T15:42:31.775Z,26.67
2022-08-26T15:44:58.469Z,26.79
2022-08-26T15:47:25.178Z,26.85
2022-08-26T15:49:51.869Z,26.76
2022-08-26T15:52:21.775Z,26.75
2022-08-26T15:54:48.645Z,26.67
2022-08-26T15:57:19.729Z,26.56
2022-08-26T15:59:46.919Z,26.50
2022-08-26T16:02:13.795Z,26.44
2022-08-26T16:04:40.492Z,26.27
2022-08-26T16:07:07.193Z,26.18
2022-08-26T16:09:34.227Z,26.20
2022-08-26T16:12:01.070Z,26.24
2022-08-26T16:14:27.765Z,26.24
2022-08-26T16:16:54.864Z,26.24
2022-08-26T16:19:22.112Z,26.27
2022-08-26T16:21:50.770Z,26.23
2022-08-26T16:24:24.809Z,26.21
2022-08-26T16:26:54.555Z,26.18
2022-08-26T16:29:21.264Z,26.17
2022-08-26T16:31:50.609Z,26.14
2022-08-26T16:34:17.331Z,26.13
2022-08-26T16:36:44.041Z,26.11
2022-08-26T16:39:11.176Z,26.10
2022-08-26T16:41:38.156Z,26.05
2022-08-26T16:44:08.958Z,26.03
2022-08-26T16:46:38.553Z,25.98
2022-08-26T16:49:05.620Z,25.91
2022-08-26T16:51:37.842Z,25.81
2022-08-26T16:54:05.913Z,25.68
2022-08-26T16:56:34.509Z,25.61
2022-08-26T16:59:02.657Z,25.57
2022-08-26T17:01:29.851Z,25.54
2022-08-26T17:03:57.253Z,25.53
2022-08-26T17:06:23.965Z,25.46
2022-08-26T17:08:50.633Z,25.31
2022-08-26T17:11:17.286Z,25.15
2022-08-26T17:13:44.031Z,25.14
2022-08-26T17:16:12.269Z,25.14
2022-08-26T17:18:39.104Z,25.10
2022-08-26T17:21:10.376Z,25.08
2022-08-26T17:23:37.878Z,25.05
2022-08-26T17:26:05.138Z,25.03
2022-08-26T17:28:32.471Z,24.98
2022-08-26T17:31:00.313Z,24.87
2022-08-26T17:33:27.850Z,24.82
2022-08-26T17:35:54.808Z,24.81
2022-08-26T17:38:21.581Z,24.73
2022-08-26T17:40:48.555Z,24.67
2022-08-26T17:43:15.644Z,24.56
2022-08-26T17:45:43.361Z,24.49
2022-08-26T17:48:11.231Z,24.48
2022-08-26T17:50:42.868Z,24.44
2022-08-26T17:53:17.795Z,24.41
2022-08-26T17:55:46.786Z,24.39
2022-08-26T17:58:14.722Z,24.40
2022-08-26T18:00:47.143Z,24.39
2022-08-26T18:03:14.151Z,24.32
2022-08-26T18:05:41.934Z,24.27
2022-08-26T18:08:09.515Z,24.26
2022-08-26T18:10:36.141Z,24.26
2022-08-26T18:13:02.858Z,24.22
2022-08-26T18:15:29.614Z,24.15
2022-08-26T18:17:56.257Z,24.05
2022-08-26T18:20:22.971Z,23.98
2022-08-26T18:22:49.623Z,23.94
2022-08-26T18:25:17.455Z,23.88
2022-08-26T18:27:44.177Z,23.82
2022-08-26T18:30:16.733Z,23.73
2022-08-26T18:32:43.962Z,23.60
2022-08-26T18:35:11.651Z,23.53
2022-08-26T18:37:38.557Z,23.47
2022-08-26T18:40:07.927Z,23.33
2022-08-26T18:42:35.255Z,23.29
2022-08-26T18:45:02.874Z,23.32
2022-08-26T18:47:30.124Z,23.27
2022-08-26T18:49:56.831Z,23.25
2022-08-26T18:52:24.033Z,23.17
2022-08-26T18:54:50.945Z,23.04
2022-08-26T18:57:17.563Z,23.02
2022-08-26T18:59:44.262Z,22.99
2022-08-26T19:02:11.089Z,22.93
2022-08-26T19:04:41.090Z,22.85
2022-08-26T19:07:08.050Z,22.77
2022-08-26T19:09:36.042Z,22.69
2022-08-26T19:12:04.150Z,22.71
2022-08-26T19:14:32.609Z,22.71
2022-08-26T19:17:01.206Z,22.68
2022-08-26T19:19:28.008Z,22.61
2022-08-26T19:21:55.405Z,22.57
2022-08-26T19:24:28.130Z,22.53
2022-08-26T19:26:57.948Z,22.58
2022-08-26T19:29:28.063Z,22.43
2022-08-26T19:31:55.057Z,22.40
2022-08-26T19:34:21.852Z,22.31
2022-08-26T19:36:49.321Z,22.31
2022-08-26T19:39:16.110Z,22.16
2022-08-26T19:41:42.909Z,22.08
2022-08-26T19:44:35.090Z,22.02
2022-08-26T19:47:03.711Z,21.98
2022-08-26T19:49:30.839Z,21.88
2022-08-26T19:51:57.543Z,21.91
2022-08-26T19:54:24.204Z,21.79
2022-08-26T19:56:51.022Z,21.77
2022-08-26T19:59:18.188Z,21.79
2022-08-26T20:01:44.931Z,21.85
2022-08-26T20:04:12.512Z,21.89
2022-08-26T20:06:39.757Z,21.91
2022-08-26T20:09:06.445Z,21.94
2022-08-26T20:11:33.128Z,21.97
2022-08-26T20:13:59.793Z,21.95
2022-08-26T20:16:26.552Z,21.99
2022-08-26T20:19:11.774Z,21.95
2022-08-26T20:21:40.176Z,21.93
2022-08-26T20:24:21.252Z,21.85
2022-08-26T20:26:48.185Z,21.84
2022-08-26T20:29:17.665Z,21.71
2022-08-26T20:31:45.191Z,21.55
2022-08-26T20:34:13.610Z,21.55
2022-08-26T20:36:41.176Z,21.61
2022-08-26T20:39:08.972Z,21.61
2022-08-26T20:41:35.667Z,21.59
2022-08-26T20:44:03.058Z,21.58
2022-08-26T20:46:29.799Z,21.54
2022-08-26T20:48:57.721Z,21.55
2022-08-26T20:51:25.098Z,21.49
2022-08-26T20:53:51.947Z,21.57
2022-08-26T20:56:25.031Z,21.48
2022-08-26T20:58:54.194Z,21.46
2022-08-26T21:01:24.444Z,21.43
2022-08-26T21:03:53.049Z,21.42
2022-08-26T21:06:19.798Z,21.56
2022-08-26T21:08:48.501Z,21.39
2022-08-26T21:11:17.375Z,21.39
2022-08-26T21:14:03.820Z,21.36
2022-08-26T21:16:31.691Z,21.46
2022-08-26T21:18:58.427Z,21.49
2022-08-26T21:21:27.652Z,21.47
2022-08-26T21:23:54.959Z,21.50
2022-08-26T21:26:22.724Z,21.34
2022-08-26T21:28:49.672Z,21.25
2022-08-26T21:31:19.214Z,21.19
2022-08-26T21:33:46.141Z,21.14
2022-08-26T21:36:13.858Z,21.15
2022-08-26T21:38:41.627Z,21.16
2022-08-26T21:41:12.979Z,21.15
2022-08-26T21:43:41.896Z,21.12
2022-08-26T21:46:16.406Z,21.14
2022-08-26T21:48:47.687Z,21.10
2022-08-26T21:51:19.793Z,21.05
2022-08-26T21:53:47.150Z,21.04
2022-08-26T21:56:17.911Z,21.00
2022-08-26T21:58:44.984Z,20.96
2022-08-26T22:01:15.038Z,20.93
2022-08-26T22:03:47.334Z,20.97
2022-08-26T22:06:17.514Z,20.92
2022-08-26T22:08:44.254Z,20.86
2022-08-26T22:11:11.609Z,20.81
2022-08-26T22:13:40.345Z,20.70
2022-08-26T22:16:08.177Z,20.75
2022-08-26T22:18:36.029Z,20.70
2022-08-26T22:21:07.170Z,20.69
2022-08-26T22:23:35.897Z,20.72
2022-08-26T22:26:03.236Z,20.62
2022-08-26T22:28:29.975Z,20.49
2022-08-26T22:30:56.741Z,20.44
2022-08-26T22:33:24.713Z,20.26
2022-08-26T22:35:53.146Z,20.17
2022-08-26T22:38:21.180Z,20.14
2022-08-26T22:40:50.967Z,20.21
2022-08-26T22:43:18.879Z,20.17
2022-08-26T22:45:48.614Z,20.01
2022-08-26T22:48:18.878Z,20.18
2022-08-26T22:50:47.217Z,20.26
2022-08-26T22:53:15.653Z,20.36
2022-08-26T22:55:43.562Z,20.30
2022-08-26T22:58:11.764Z,20.31
2022-08-26T23:00:40.263Z,20.08
2022-08-26T23:03:07.274Z,20.00
2022-08-26T23:05:34.269Z,19.88
2022-08-26T23:08:02.089Z,19.81
2022-08-26T23:10:28.802Z,19.82
2022-08-26T23:12:55.749Z,19.79
2022-08-26T23:15:22.578Z,19.83
2022-08-26T23:17:55.884Z,19.88
2022-08-26T23:20:27.380Z,19.86
2022-08-26T23:22:54.661Z,19.78
2022-08-26T23:25:22.459Z,19.82
2022-08-26T23:27:52.662Z,19.74
2022-08-26T23:30:23.721Z,19.71
2022-08-26T23:32:50.519Z,19.73
2022-08-26T23:35:20.148Z,19.79
2022-08-26T23:37:50.098Z,19.83
2022-08-26T23:40:29.453Z,19.81
2022-08-26T23:42:58.259Z,19.75
2022-08-26T23:45:26.730Z,19.74
2022-08-26T23:47:54.333Z,19.72
2022-08-26T23:50:44.063Z,19.66
2022-08-26T23:53:11.402Z,19.70
2022-08-26T23:55:39.470Z,19.71
2022-08-26T23:58:06.924Z,19.65
